createdAt,value
2019-06-26T00:02:28.847Z,65.06
2019-06-26T00:05:01.484Z,65.12
2019-06-26T00:07:34.189Z,65.49
2019-06-26T00:10:07.221Z,65.90
2019-06-26T00:12:40.064Z,65.40
2019-06-26T00:15:13.072Z,65.19
2019-06-26T00:17:45.815Z,65.72
2019-06-26T00:20:19.138Z,65.33
2019-06-26T00:22:51.849Z,65.55
2019-06-26T00:25:24.572Z,65.38
2019-06-26T00:27:57.291Z,65.85
2019-06-26T00:30:29.950Z,65.75
2019-06-26T00:33:02.690Z,65.99
2019-06-26T00:35:35.772Z,66.22
2019-06-26T00:38:08.566Z,65.61
2019-06-26T00:40:41.285Z,65.61
2019-06-26T00:43:13.914Z,66.39
2019-06-26T00:45:46.795Z,66.37
2019-06-26T00:48:19.574Z,65.89
2019-06-26T00:50:58.347Z,66.21
2019-06-26T00:53:31.105Z,65.94
2019-06-26T00:56:52.323Z,66.30
2019-06-26T00:59:25.054Z,66.53
2019-06-26T01:01:57.711Z,66.54
2019-06-26T01:04:34.157Z,66.81
2019-06-26T01:07:07.055Z,67.09
2019-06-26T01:09:39.802Z,66.47
2019-06-26T01:12:12.648Z,66.43
2019-06-26T01:14:45.431Z,66.52
2019-06-26T01:17:18.225Z,66.55
2019-06-26T01:19:50.870Z,66.47
2019-06-26T01:22:23.515Z,66.48
2019-06-26T01:24:56.194Z,66.67
2019-06-26T01:27:29.345Z,67.05
2019-06-26T01:30:02.049Z,67.16
2019-06-26T01:32:34.716Z,67.13
2019-06-26T01:35:07.620Z,67.66
2019-06-26T01:37:40.231Z,67.49
2019-06-26T01:40:13.294Z,66.98
2019-06-26T01:42:46.002Z,66.68
2019-06-26T01:45:18.774Z,67.37
2019-06-26T01:47:51.609Z,67.44
2019-06-26T01:50:24.282Z,67.78
2019-06-26T01:52:57.055Z,67.99
2019-06-26T01:55:29.755Z,68.03
2019-06-26T01:58:02.478Z,67.70
2019-06-26T02:00:35.091Z,68.12
2019-06-26T02:03:07.759Z,68.80
2019-06-26T02:05:40.376Z,68.72
2019-06-26T02:08:13.070Z,68.86
2019-06-26T02:10:46.015Z,69.10
2019-06-26T02:13:18.709Z,68.68
2019-06-26T02:15:51.325Z,68.74
2019-06-26T02:18:46.641Z,68.75
2019-06-26T02:21:19.455Z,68.61
2019-06-26T02:23:52.321Z,68.59
2019-06-26T02:26:25.112Z,68.38
2019-06-26T02:28:58.126Z,68.82
2019-06-26T02:31:31.111Z,69.10
2019-06-26T02:34:03.798Z,69.51
2019-06-26T02:36:36.463Z,69.55
2019-06-26T02:39:09.306Z,69.90
2019-06-26T02:41:42.090Z,69.97
2019-06-26T02:44:15.092Z,70.06
2019-06-26T02:46:47.866Z,69.35
2019-06-26T02:49:20.479Z,69.72
2019-06-26T02:51:53.192Z,70.40
2019-06-26T02:54:25.906Z,70.13
2019-06-26T02:56:58.505Z,70.08
2019-06-26T02:59:31.115Z,70.02
2019-06-26T03:02:03.766Z,69.88
2019-06-26T03:04:36.352Z,70.45
2019-06-26T03:07:08.969Z,70.41
2019-06-26T03:09:41.635Z,70.40
2019-06-26T03:12:14.277Z,70.25
2019-06-26T03:14:46.949Z,70.41
2019-06-26T03:17:19.712Z,70.29
2019-06-26T03:19:52.397Z,69.96
2019-06-26T03:22:25.042Z,69.45
2019-06-26T03:24:57.638Z,69.67
2019-06-26T03:27:30.395Z,70.23
2019-06-26T03:30:03.121Z,70.04
2019-06-26T03:32:35.738Z,70.38
2019-06-26T03:35:08.688Z,69.65
2019-06-26T03:37:41.336Z,69.40
2019-06-26T03:40:15.522Z,70.20
2019-06-26T03:42:48.385Z,69.99
2019-06-26T03:45:26.035Z,69.88
2019-06-26T03:47:56.204Z,69.33
2019-06-26T03:50:28.878Z,69.63
2019-06-26T03:53:01.604Z,69.58
2019-06-26T03:55:34.289Z,69.80
2019-06-26T03:58:07.121Z,69.52
2019-06-26T04:00:41.730Z,69.10
2019-06-26T04:03:14.375Z,69.57
2019-06-26T04:05:47.044Z,69.06
2019-06-26T04:08:19.850Z,69.24
2019-06-26T04:10:52.653Z,68.86
2019-06-26T04:13:25.612Z,68.17
2019-06-26T04:15:58.459Z,67.91
2019-06-26T04:18:31.370Z,67.45
2019-06-26T04:21:04.257Z,67.59
2019-06-26T04:23:36.975Z,66.13
2019-06-26T04:26:09.601Z,64.78
2019-06-26T04:28:42.204Z,64.95
2019-06-26T04:31:14.933Z,63.52
2019-06-26T04:33:47.645Z,63.10
2019-06-26T04:36:20.310Z,61.47
2019-06-26T04:38:52.935Z,59.67
2019-06-26T04:41:25.571Z,57.13
2019-06-26T04:43:58.327Z,56.04
2019-06-26T04:46:31.006Z,53.86
2019-06-26T04:49:03.727Z,51.28
2019-06-26T04:51:36.426Z,48.76
2019-06-26T04:54:09.115Z,48.18
2019-06-26T04:56:42.005Z,47.39
2019-06-26T04:59:14.652Z,46.58
2019-06-26T05:01:47.029Z,45.25
2019-06-26T05:04:22.195Z,43.45
2019-06-26T05:06:54.824Z,43.12
2019-06-26T05:09:27.457Z,43.35
2019-06-26T05:12:00.145Z,43.18
2019-06-26T05:14:32.799Z,44.06
2019-06-26T05:17:05.202Z,42.95
2019-06-26T05:19:37.929Z,43.53
2019-06-26T05:22:10.481Z,44.32
2019-06-26T05:24:46.343Z,44.67
2019-06-26T05:27:17.492Z,44.84
2019-06-26T05:29:50.186Z,44.01
2019-06-26T05:32:22.829Z,41.88
2019-06-26T05:34:55.680Z,42.24
2019-06-26T05:37:28.491Z,45.38
2019-06-26T05:40:01.218Z,44.50
2019-06-26T05:42:33.551Z,42.70
2019-06-26T05:45:08.400Z,40.76
2019-06-26T05:47:41.196Z,40.09
2019-06-26T05:50:14.675Z,38.55
2019-06-26T05:52:47.067Z,38.43
2019-06-26T05:55:19.826Z,38.36
2019-06-26T05:57:52.143Z,36.93
2019-06-26T06:00:24.898Z,39.06
2019-06-26T06:02:57.473Z,41.38
2019-06-26T06:05:30.141Z,41.53
2019-06-26T06:08:02.973Z,40.70
2019-06-26T06:10:35.439Z,40.77
2019-06-26T06:13:08.372Z,41.01
2019-06-26T06:15:40.702Z,40.44
2019-06-26T06:18:13.108Z,40.05
2019-06-26T06:20:45.652Z,40.91
2019-06-26T06:23:18.284Z,41.86
2019-06-26T06:25:50.878Z,42.06
2019-06-26T06:28:23.575Z,42.63
2019-06-26T06:30:55.935Z,42.72
2019-06-26T06:33:28.554Z,43.54
2019-06-26T06:36:01.171Z,43.58
2019-06-26T06:38:33.484Z,41.75
2019-06-26T06:41:06.005Z,40.28
2019-06-26T06:43:38.706Z,40.39
2019-06-26T06:46:11.076Z,38.49
2019-06-26T06:48:43.486Z,34.29
2019-06-26T06:51:16.197Z,33.95
2019-06-26T06:53:48.503Z,33.85
2019-06-26T06:56:20.811Z,33.74
2019-06-26T06:58:53.126Z,31.26
2019-06-26T07:01:25.536Z,32.23
2019-06-26T07:03:57.845Z,32.32
2019-06-26T07:06:30.222Z,35.21
2019-06-26T07:09:02.671Z,31.83
2019-06-26T07:11:35.115Z,33.24
2019-06-26T07:14:07.690Z,33.36
2019-06-26T07:16:40.151Z,31.20
2019-06-26T07:19:12.539Z,33.77
2019-06-26T07:21:46.746Z,31.45
2019-06-26T07:24:21.143Z,32.86
2019-06-26T07:26:53.481Z,29.79
2019-06-26T07:29:26.715Z,30.16
2019-06-26T07:31:59.100Z,31.73
2019-06-26T07:34:31.541Z,30.00
2019-06-26T07:37:03.911Z,30.77
2019-06-26T07:39:36.362Z,32.94
2019-06-26T07:42:08.670Z,30.96
2019-06-26T07:44:40.982Z,30.75
2019-06-26T07:47:22.838Z,32.13
2019-06-26T07:49:47.322Z,34.22
2019-06-26T07:52:19.622Z,36.12
2019-06-26T07:54:52.079Z,35.64
2019-06-26T07:57:24.763Z,31.59
2019-06-26T07:59:57.097Z,32.25
2019-06-26T08:02:29.451Z,31.17
2019-06-26T08:05:01.847Z,32.84
2019-06-26T08:07:34.255Z,31.70
2019-06-26T08:10:07.885Z,31.95
2019-06-26T08:12:40.195Z,35.56
2019-06-26T08:15:13.064Z,34.25
2019-06-26T08:17:59.212Z,30.36
2019-06-26T08:20:19.935Z,33.48
2019-06-26T08:22:52.267Z,31.77
2019-06-26T08:25:24.647Z,32.63
2019-06-26T08:27:56.970Z,31.56
2019-06-26T08:30:29.452Z,31.70
2019-06-26T08:33:01.856Z,30.87
2019-06-26T08:35:34.234Z,29.57
2019-06-26T08:38:12.499Z,31.08
2019-06-26T08:40:40.565Z,31.52
2019-06-26T08:43:12.975Z,30.41
2019-06-26T08:45:45.296Z,29.90
2019-06-26T08:48:37.947Z,30.58
2019-06-26T08:50:51.687Z,28.75
2019-06-26T08:53:24.084Z,29.63
2019-06-26T08:55:56.388Z,31.10
2019-06-26T08:58:37.575Z,29.36
2019-06-26T09:01:09.996Z,33.21
2019-06-26T09:03:42.341Z,30.71
2019-06-26T09:06:14.782Z,32.30
2019-06-26T09:08:47.120Z,31.49
2019-06-26T09:11:19.453Z,29.41
2019-06-26T09:13:51.922Z,28.75
2019-06-26T09:16:24.378Z,26.99
2019-06-26T09:18:56.788Z,27.97
2019-06-26T09:21:31.237Z,30.56
2019-06-26T09:24:03.259Z,29.80
2019-06-26T09:26:35.801Z,29.76
2019-06-26T09:29:08.115Z,31.04
2019-06-26T09:31:40.517Z,31.77
2019-06-26T09:34:12.883Z,32.41
2019-06-26T09:36:45.245Z,32.87
2019-06-26T09:39:17.693Z,31.74
2019-06-26T09:41:50.024Z,32.34
2019-06-26T09:44:22.375Z,31.27
2019-06-26T09:46:54.658Z,29.12
2019-06-26T09:49:27.066Z,28.90
2019-06-26T09:51:59.646Z,31.31
2019-06-26T09:54:31.976Z,29.09
2019-06-26T09:57:04.444Z,28.17
2019-06-26T09:59:36.809Z,26.92
2019-06-26T10:02:09.611Z,32.94
2019-06-26T10:04:41.976Z,27.95
2019-06-26T10:07:14.298Z,28.50
2019-06-26T10:09:47.035Z,27.23
2019-06-26T10:12:19.630Z,27.65
2019-06-26T10:14:52.271Z,31.53
2019-06-26T10:17:24.614Z,29.06
2019-06-26T10:19:57.030Z,32.19
2019-06-26T10:22:29.412Z,33.45
2019-06-26T10:25:01.906Z,31.67
2019-06-26T10:27:34.603Z,28.46
2019-06-26T10:30:07.995Z,28.82
2019-06-26T10:32:40.317Z,27.99
2019-06-26T10:35:13.341Z,28.52
2019-06-26T10:37:45.680Z,30.88
2019-06-26T10:40:18.235Z,29.33
2019-06-26T10:42:50.640Z,29.41
2019-06-26T10:45:23.092Z,33.44
2019-06-26T10:47:55.427Z,27.37
2019-06-26T10:50:27.864Z,28.85
2019-06-26T10:53:00.239Z,29.01
2019-06-26T10:55:32.569Z,26.73
2019-06-26T10:58:04.995Z,27.19
2019-06-26T11:00:37.762Z,26.42
2019-06-26T11:03:10.114Z,25.54
2019-06-26T11:05:42.925Z,27.33
2019-06-26T11:08:15.440Z,28.90
2019-06-26T11:10:47.844Z,26.10
2019-06-26T11:13:20.149Z,26.11
2019-06-26T11:15:52.636Z,27.56
2019-06-26T11:18:25.060Z,25.89
2019-06-26T11:20:57.390Z,26.05
2019-06-26T11:23:29.774Z,27.74
2019-06-26T11:26:02.114Z,25.33
2019-06-26T11:28:34.444Z,24.12
2019-06-26T11:31:06.764Z,25.03
2019-06-26T11:33:39.159Z,25.76
2019-06-26T11:36:11.607Z,25.13
2019-06-26T11:38:44.094Z,24.88
2019-06-26T11:41:16.492Z,23.54
2019-06-26T11:43:49.252Z,25.77
2019-06-26T11:46:21.596Z,25.50
2019-06-26T11:48:54.044Z,26.59
2019-06-26T11:51:26.709Z,28.04
2019-06-26T11:53:59.186Z,26.45
2019-06-26T11:56:31.522Z,30.33
2019-06-26T11:59:04.007Z,27.01
2019-06-26T12:01:36.384Z,26.58
2019-06-26T12:04:09.535Z,25.33
2019-06-26T12:06:45.504Z,27.15
2019-06-26T12:09:15.892Z,26.79
2019-06-26T12:11:48.317Z,25.70
2019-06-26T12:14:20.695Z,24.95
2019-06-26T12:16:53.112Z,24.37
2019-06-26T12:19:25.419Z,23.27
2019-06-26T12:21:57.771Z,24.36
2019-06-26T12:24:30.115Z,24.56
2019-06-26T12:27:02.448Z,24.97
2019-06-26T12:29:34.791Z,27.29
2019-06-26T12:32:07.176Z,28.00
2019-06-26T12:34:39.496Z,31.15
2019-06-26T12:37:11.943Z,31.87
2019-06-26T12:39:44.374Z,33.23
2019-06-26T12:42:16.685Z,30.90
2019-06-26T12:44:49.065Z,30.46
2019-06-26T12:47:21.487Z,31.46
2019-06-26T12:49:53.885Z,31.27
2019-06-26T12:52:26.291Z,32.03
2019-06-26T12:54:58.600Z,34.18
2019-06-26T12:57:30.917Z,34.03
2019-06-26T13:00:03.404Z,31.65
2019-06-26T13:02:35.763Z,32.35
2019-06-26T13:05:08.543Z,31.25
2019-06-26T13:07:40.862Z,30.92
2019-06-26T13:10:13.538Z,31.58
2019-06-26T13:12:46.210Z,33.27
2019-06-26T13:15:19.003Z,32.11
2019-06-26T13:17:51.301Z,32.32
2019-06-26T13:20:23.840Z,32.22
2019-06-26T13:22:56.235Z,31.89
2019-06-26T13:25:28.636Z,32.93
2019-06-26T13:28:00.948Z,33.14
2019-06-26T13:30:38.771Z,33.10
2019-06-26T13:33:11.149Z,31.53
2019-06-26T13:35:43.657Z,31.75
2019-06-26T13:38:16.121Z,33.46
2019-06-26T13:40:51.668Z,33.03
2019-06-26T13:43:22.471Z,32.21
2019-06-26T13:45:58.588Z,31.94
2019-06-26T13:48:28.931Z,33.45
2019-06-26T13:51:09.270Z,33.32
2019-06-26T13:53:35.375Z,34.81
2019-06-26T13:56:07.716Z,32.50
2019-06-26T13:58:40.045Z,34.77
2019-06-26T14:01:12.441Z,33.91
2019-06-26T14:03:44.741Z,33.85
2019-06-26T14:06:17.083Z,33.41
2019-06-26T14:08:49.482Z,32.94
2019-06-26T14:11:21.809Z,33.68
2019-06-26T14:13:54.432Z,33.54
2019-06-26T14:16:29.834Z,34.44
2019-06-26T14:19:00.858Z,33.54
2019-06-26T14:21:33.283Z,33.63
2019-06-26T14:24:05.735Z,33.01
2019-06-26T14:26:38.147Z,32.76
2019-06-26T14:29:20.408Z,32.45
2019-06-26T14:31:44.655Z,33.10
2019-06-26T14:34:17.198Z,32.80
2019-06-26T14:36:49.793Z,31.88
2019-06-26T14:39:22.110Z,30.13
2019-06-26T14:41:54.459Z,31.72
2019-06-26T14:44:27.079Z,30.79
2019-06-26T14:46:59.561Z,31.29
2019-06-26T14:49:31.875Z,30.88
2019-06-26T14:52:04.273Z,31.98
2019-06-26T14:54:36.674Z,31.42
2019-06-26T14:57:09.094Z,30.76
2019-06-26T14:59:41.441Z,30.05
2019-06-26T15:02:13.835Z,30.71
2019-06-26T15:04:46.450Z,29.94
2019-06-26T15:07:18.983Z,30.49
2019-06-26T15:09:51.677Z,30.31
2019-06-26T15:12:24.050Z,29.08
2019-06-26T15:14:56.522Z,30.82
2019-06-26T15:17:29.042Z,32.26
2019-06-26T15:20:02.767Z,32.87
2019-06-26T15:22:35.213Z,31.13
2019-06-26T15:25:09.118Z,31.12
2019-06-26T15:27:41.549Z,31.72
2019-06-26T15:30:14.193Z,31.12
2019-06-26T15:32:48.461Z,32.48
2019-06-26T15:35:21.037Z,33.98
2019-06-26T15:37:53.359Z,33.29
2019-06-26T15:40:25.915Z,33.61
2019-06-26T15:42:58.256Z,35.27
2019-06-26T15:45:30.686Z,35.19
2019-06-26T15:48:03.143Z,38.33
2019-06-26T15:50:35.453Z,37.74
2019-06-26T15:53:07.836Z,38.42
2019-06-26T15:56:00.681Z,39.86
2019-06-26T15:58:33.691Z,43.57
2019-06-26T16:01:06.339Z,41.64
2019-06-26T16:03:38.788Z,44.86
2019-06-26T16:06:11.160Z,46.67
2019-06-26T16:08:43.457Z,44.08
2019-06-26T16:11:15.766Z,44.53
2019-06-26T16:13:48.142Z,43.88
2019-06-26T16:16:20.873Z,42.27
2019-06-26T16:18:58.768Z,41.36
2019-06-26T16:21:31.214Z,39.60
2019-06-26T16:24:03.573Z,39.34
2019-06-26T16:26:36.004Z,38.71
2019-06-26T16:29:08.370Z,38.61
2019-06-26T16:31:40.784Z,36.55
2019-06-26T16:34:13.126Z,37.64
2019-06-26T16:36:45.507Z,38.06
2019-06-26T16:39:18.308Z,36.52
2019-06-26T16:41:50.692Z,36.31
2019-06-26T16:44:23.117Z,35.96
2019-06-26T16:46:59.140Z,36.02
2019-06-26T16:49:29.471Z,35.44
2019-06-26T16:52:01.872Z,34.53
2019-06-26T16:54:34.345Z,35.39
2019-06-26T16:57:06.851Z,34.32
2019-06-26T16:59:39.207Z,34.73
2019-06-26T17:02:11.607Z,35.28
2019-06-26T17:04:43.964Z,35.65
2019-06-26T17:07:16.376Z,35.07
2019-06-26T17:09:48.875Z,33.72
2019-06-26T17:12:21.427Z,34.89
2019-06-26T17:14:54.156Z,34.68
2019-06-26T17:17:26.605Z,33.82
2019-06-26T17:19:58.983Z,34.72
2019-06-26T17:22:31.327Z,34.99
2019-06-26T17:25:03.789Z,36.11
2019-06-26T17:27:36.266Z,35.38
2019-06-26T17:30:10.258Z,35.57
2019-06-26T17:32:42.664Z,36.88
2019-06-26T17:35:15.410Z,37.41
2019-06-26T17:37:47.809Z,37.09
2019-06-26T17:40:20.773Z,36.95
2019-06-26T17:42:53.280Z,37.83
2019-06-26T17:45:25.739Z,37.78
2019-06-26T17:47:58.409Z,38.80
2019-06-26T17:50:30.927Z,40.08
2019-06-26T17:53:03.554Z,38.70
2019-06-26T17:55:35.948Z,38.84
2019-06-26T17:58:08.536Z,38.51
2019-06-26T18:00:40.927Z,39.21
2019-06-26T18:03:14.231Z,38.96
2019-06-26T18:05:46.653Z,39.56
2019-06-26T18:08:21.007Z,38.47
2019-06-26T18:10:53.882Z,38.48
2019-06-26T18:13:48.436Z,40.00
2019-06-26T18:16:21.024Z,39.44
2019-06-26T18:18:53.439Z,40.47
2019-06-26T18:21:25.866Z,38.86
2019-06-26T18:23:58.215Z,39.74
2019-06-26T18:26:30.682Z,40.72
2019-06-26T18:29:03.136Z,40.04
2019-06-26T18:31:35.639Z,40.41
2019-06-26T18:34:07.993Z,40.47
2019-06-26T18:36:40.363Z,40.86
2019-06-26T18:39:12.917Z,41.01
2019-06-26T18:41:45.285Z,41.63
2019-06-26T18:44:17.665Z,41.33
2019-06-26T18:46:49.967Z,42.42
2019-06-26T18:49:22.276Z,42.38
2019-06-26T18:51:54.703Z,42.69
2019-06-26T18:54:27.085Z,43.08
2019-06-26T18:56:59.399Z,44.30
2019-06-26T18:59:32.151Z,44.42
2019-06-26T19:02:04.484Z,44.76
2019-06-26T19:04:36.988Z,44.79
2019-06-26T19:07:09.344Z,45.54
2019-06-26T19:09:41.872Z,46.25
2019-06-26T19:12:14.297Z,46.29
2019-06-26T19:14:46.691Z,47.34
2019-06-26T19:17:19.075Z,47.43
2019-06-26T19:19:51.498Z,48.02
2019-06-26T19:22:23.867Z,48.75
2019-06-26T19:24:56.443Z,49.29
2019-06-26T19:27:28.825Z,50.66
2019-06-26T19:30:01.271Z,51.40
2019-06-26T19:32:36.511Z,52.58
2019-06-26T19:35:18.696Z,53.18
2019-06-26T19:37:43.053Z,54.13
2019-06-26T19:40:15.769Z,54.96
2019-06-26T19:42:48.434Z,55.53
2019-06-26T19:45:23.417Z,56.12
2019-06-26T19:47:55.863Z,56.55
2019-06-26T19:50:28.297Z,56.71
2019-06-26T19:53:00.732Z,56.99
2019-06-26T19:55:33.138Z,57.18
2019-06-26T19:58:05.936Z,57.68
2019-06-26T20:00:38.271Z,57.87
2019-06-26T20:03:10.886Z,58.49
2019-06-26T20:05:43.604Z,58.87
2019-06-26T20:08:16.000Z,57.21
2019-06-26T20:10:48.624Z,58.15
2019-06-26T20:13:21.009Z,58.57
2019-06-26T20:15:53.688Z,59.17
2019-06-26T20:18:26.331Z,59.81
2019-06-26T20:20:58.755Z,59.45
2019-06-26T20:23:31.358Z,60.33
2019-06-26T20:26:04.767Z,60.77
2019-06-26T20:28:37.360Z,61.97
2019-06-26T20:31:10.085Z,61.72
2019-06-26T20:33:42.733Z,63.45
2019-06-26T20:36:15.421Z,63.26
2019-06-26T20:38:48.143Z,62.74
2019-06-26T20:41:20.820Z,63.28
2019-06-26T20:43:53.598Z,62.99
2019-06-26T20:46:26.313Z,64.52
2019-06-26T20:48:59.392Z,64.45
2019-06-26T20:51:32.384Z,64.00
2019-06-26T20:54:05.437Z,64.22
2019-06-26T20:56:38.078Z,64.15
2019-06-26T20:59:10.747Z,64.74
2019-06-26T21:01:43.987Z,64.88
2019-06-26T21:04:17.447Z,64.89
2019-06-26T21:06:51.003Z,65.50
2019-06-26T21:09:24.640Z,65.51
2019-06-26T21:11:59.225Z,65.44
2019-06-26T21:14:32.796Z,65.88
2019-06-26T21:17:06.320Z,66.08
2019-06-26T21:19:40.546Z,66.22
2019-06-26T21:22:14.093Z,66.12
2019-06-26T21:24:48.348Z,67.00
2019-06-26T21:27:21.782Z,67.56
2019-06-26T21:29:55.439Z,67.52
2019-06-26T21:32:29.013Z,67.17
2019-06-26T21:35:01.726Z,67.24
2019-06-26T21:37:34.451Z,68.00
2019-06-26T21:40:07.273Z,67.78
2019-06-26T21:42:40.748Z,67.31
2019-06-26T21:45:13.901Z,67.86
2019-06-26T21:47:46.816Z,68.28
2019-06-26T21:50:20.403Z,68.77
2019-06-26T21:52:55.064Z,68.13
2019-06-26T21:55:34.347Z,68.70
2019-06-26T21:58:04.112Z,68.89
2019-06-26T22:00:50.764Z,68.22
2019-06-26T22:03:24.626Z,68.51
2019-06-26T22:06:00.757Z,68.84
2019-06-26T22:08:34.324Z,68.89
2019-06-26T22:11:07.977Z,69.66
2019-06-26T22:13:41.765Z,70.04
2019-06-26T22:16:15.211Z,69.68
2019-06-26T22:19:08.609Z,70.39
2019-06-26T22:21:42.270Z,71.02
2019-06-26T22:24:15.695Z,70.60
2019-06-26T22:26:49.189Z,70.86
2019-06-26T22:29:22.735Z,71.16
2019-06-26T22:31:56.346Z,71.22
2019-06-26T22:34:29.608Z,70.94
2019-06-26T22:37:02.920Z,70.35
2019-06-26T22:39:36.529Z,70.36
2019-06-26T22:42:10.172Z,69.55
2019-06-26T22:44:43.844Z,69.93
2019-06-26T22:47:17.355Z,70.17
2019-06-26T22:49:50.848Z,70.31
2019-06-26T22:52:24.438Z,69.18
2019-06-26T22:54:57.918Z,69.29
2019-06-26T22:57:31.404Z,69.80
2019-06-26T23:00:06.206Z,70.80
2019-06-26T23:02:39.640Z,71.22
2019-06-26T23:05:13.625Z,71.41
2019-06-26T23:07:47.173Z,71.40
2019-06-26T23:10:23.322Z,70.18
2019-06-26T23:12:56.874Z,67.69
2019-06-26T23:15:29.574Z,69.91
2019-06-26T23:18:02.213Z,70.34
2019-06-26T23:20:34.883Z,71.01
2019-06-26T23:23:07.516Z,70.12
2019-06-26T23:25:40.157Z,69.69
2019-06-26T23:28:12.770Z,70.38
2019-06-26T23:30:45.403Z,70.08
2019-06-26T23:33:18.216Z,68.20
2019-06-26T23:35:50.875Z,68.71
2019-06-26T23:38:23.817Z,67.90
2019-06-26T23:40:56.630Z,67.23
2019-06-26T23:43:29.434Z,68.03
2019-06-26T23:46:02.182Z,67.68
2019-06-26T23:48:34.878Z,68.20
2019-06-26T23:51:07.509Z,66.65
2019-06-26T23:53:40.199Z,67.10
2019-06-26T23:56:12.949Z,67.18
2019-06-26T23:58:45.662Z,67.21
